YOMO weather

Omeo Airport
Victoria, Australia

Public forecast

Using degrees Celsius for public forecast. Weather courtesy of forecast.io.

METAR (pilot weather report)

Closest report is Albury Airport, 68.9 nm (127.7 km) NNW. Retrieved 2019/03/18 17:00 UTC (17 minutes ago):

YMAY 181700Z AUTO 12006KT 9999 // BKN105 22/15 Q1013

TAF (pilot weather forecast)

Forecast is more than 12 hours old.

Closest forecast is Wangaratta Airport, 74.1 nm (137.3 km) WNW. Retrieved 2019/03/18 02:03 UTC (15 hours ago):

TAF YWGT 180041Z 1802/1814 16012KT 8000 FU NSC FM180800 16005KT 8000 FU NSC